PST,Max TemperatureF,Mean TemperatureF,Min TemperatureF,Max Dew PointF,MeanDew PointF,Min DewpointF,Max Humidity, Mean Humidity, Min Humidity, Max Sea Level PressureIn, Mean Sea Level PressureIn, Min Sea Level PressureIn, Max VisibilityMiles, Mean VisibilityMiles, Min VisibilityMiles, Max Wind SpeedMPH, Mean Wind SpeedMPH, Max Gust SpeedMPH,PrecipitationIn, CloudCover, Events, WindDirDegrees
2013-11-1,60,56,51,53,51,50,100,86,72,30.30,30.18,29.84,9,4,2,10,4,14,0.17,7,Rain,64
2013-11-2,54,51,47,52,46,39,89,76,63,29.97,29.73,29.54,8,4,2,39,24,55,0.22,8,Rain,217
2013-11-3,52,44,36,40,38,36,92,76,59,30.13,30.08,29.99,8,7,5,21,9,29,T,4,Rain,267
2013-11-4,48,41,34,45,41,35,100,90,80,30.18,30.10,30.02,8,5,2,15,9,20,0.23,8,Rain,56
2013-11-5,55,49,42,50,46,42,100,89,77,30.27,30.12,30.00,7,3,0,14,5,17,0.13,7,Fog-Rain,322
2013-11-6,52,47,41,49,45,40,100,89,77,30.31,30.20,30.00,7,3,0,15,8,21,0.60,7,Fog-Rain,51
2013-11-7,55,52,49,54,48,45,100,90,80,30.08,29.83,29.73,7,3,1,40,20,48,1.25,8,Rain,201
2013-11-8,53,47,40,47,44,39,100,86,71,30.17,30.14,30.09,7,5,1,15,5,20,0.01,3,,194
2013-11-9,48,44,39,45,42,39,100,93,86,30.15,30.11,30.08,9,3,0,13,8,15,0.02,7,Fog,66
2013-11-10,54,50,45,45,43,42,93,82,71,30.11,30.09,30.07,10,9,8,20,11,28,0.00,3,,60
2013-11-11,58,51,44,46,45,43,93,78,62,30.12,30.05,29.99,9,7,4,17,12,22,0.00,1,,72
2013-11-12,57,54,50,54,51,45,100,89,77,30.39,30.24,30.03,9,5,2,25,8,33,0.30,8,Rain,155
2013-11-13,55,51,47,52,50,45,100,90,80,30.48,30.43,30.34,9,4,0,13,4,15,0.07,7,Fog-Rain,228
2013-11-14,53,46,39,47,45,39,100,87,74,30.32,30.20,30.12,8,6,5,15,4,18,0.00,4,,274
2013-11-15,50,44,37,49,46,38,100,86,71,30.11,29.73,29.48,8,4,1,37,15,47,0.73,8,Rain,237
2013-11-16,50,47,43,43,38,35,82,72,61,29.81,29.66,29.49,8,6,2,29,14,38,0.10,7,Rain,267
2013-11-17,53,49,44,49,47,44,100,93,86,29.93,29.86,29.80,9,6,2,20,9,22,0.13,8,Rain,191
2013-11-18,54,50,46,54,50,46,100,97,93,29.91,29.73,29.55,9,3,1,32,15,43,1.21,8,Rain,160
2013-11-19,51,41,31,52,39,26,100,77,53,30.08,29.81,29.61,9,8,2,21,7,24,0.02,5,Rain,288
2013-11-20,45,36,26,34,28,25,100,75,49,30.51,30.33,30.11,9,7,2,8,4,12,0.00,0,,39
2013-11-21,45,37,28,32,28,26,92,71,49,30.65,30.61,30.52,9,8,5,17,8,23,0.00,0,,46
2013-11-22,50,41,32,32,29,27,85,64,42,30.60,30.51,30.39,9,8,6,18,12,24,0.00,0,,59
2013-11-23,54,45,35,33,31,25,82,57,32,30.38,30.26,30.17,9,8,6,18,11,33,0.00,0,,68
2013-11-24,51,42,33,39,35,32,100,80,59,30.25,30.18,30.14,8,6,3,16,10,17,0.00,0,,71
2013-11-25,49,41,32,40,35,31,100,86,71,30.31,30.28,30.25,6,4,2,14,7,15,0.00,0,,70
2013-11-26,47,40,32,43,36,32,100,88,76,30.25,30.17,30.08,7,4,1,14,8,18,0.04,5,Rain,69
2013-11-27,57,49,40,45,43,39,100,80,59,30.07,30.01,29.94,8,5,2,13,7,14,0.10,4,Rain,70
2013-11-28,53,43,33,42,37,33,100,82,64,30.20,30.09,30.02,6,3,0,10,5,12,0.00,1,Fog,68
2013-11-29,50,45,39,47,44,39,100,93,86,30.36,30.27,30.20,8,5,0,10,3,14,0.04,8,Fog-Rain,235
2013-11-30,50,48,45,49,47,44,100,97,93,30.35,30.27,30.11,8,4,2,16,9,22,0.23,8,Rain,159